This is the latest recevied weather packets stored in our database for station/object SP3VSS-13. If no packets are shown the sender has not sent any weather packets the latest 10 day(s).
| Time | Temp. | Humidity | Pressure | Rain* | Wind** | Luminosity | Snow |
|---|---|---|---|---|---|---|---|
| 1788609817 | 16.11° C | 88% | 1001.8 hPa | 2.03 mm | - | - | - |
| 1788608916 | 14.44° C | 89% | 1002.1 hPa | 2.03 mm | - | - | - |
| 1788608015 | 13.89° C | 89% | 1002.1 hPa | 2.03 mm | - | - | - |
| 1788607114 | 17.78° C | 67% | 1002.4 hPa | - | - | - | - |
| 1788606213 | 17.78° C | 67% | 1002.2 hPa | - | - | - | - |
| 1788605312 | 17.78° C | 67% | 1001.6 hPa | - | - | - | - |
| 1788604407 | 17.78° C | 70% | 1001.6 hPa | - | - | - | - |
| 1788603506 | 19.44° C | 64% | 1001.5 hPa | - | - | - | - |
| 1788602605 | 19.44° C | 63% | 1001.3 hPa | - | - | - | - |
| 1788601705 | 20° C | 63% | 1001.3 hPa | - | - | - | - |
| 1788600803 | 20° C | 63% | 1001.4 hPa | - | - | - | - |
| 1788599903 | 20° C | 61% | 1001.2 hPa | - | - | - | - |
| 1788599001 | 18.89° C | 64% | 1001.1 hPa | - | - | - | - |
| 1788598101 | 18.89° C | 66% | 1001 hPa | - | - | - | - |
| 1788597199 | 18.89° C | 66% | 1000.8 hPa | - | - | - | - |
| 1788596319 | 18.89° C | 66% | 1000.7 hPa | - | - | - | - |
| 1788595397 | 18.33° C | 68% | 1000.5 hPa | - | - | - | - |
| 1788594496 | 18.89° C | 69% | 1000.5 hPa | - | - | - | - |
| 1788593597 | 18.33° C | 70% | 1000.4 hPa | - | - | - | - |
| 1788592694 | 17.78° C | 72% | 1000.4 hPa | - | - | - | - |
| 1788591793 | 16.67° C | 77% | 1000.2 hPa | - | - | - | - |
| 1788590892 | 15.56° C | 84% | 1000.2 hPa | - | - | - | - |
| 1788589991 | 16.11° C | 80% | 1000.2 hPa | - | - | - | - |
| 1788589087 | 16.11° C | 80% | 1000.1 hPa | - | - | - | - |
| 1788588186 | 16.11° C | 80% | 1000 hPa | - | - | - | - |
* Rain latest hour (hover to see other rain measurements)
** Current wind speed in m/s (hover to see current wind gust speed)